You are not logged in, Click here to log in
西瑞爾金恩機場 STT / TIST 夏洛特阿馬利亞
ICAO: TIST Country: 夏洛特阿馬利亞
Latitude: 18.3373 Longitude: -64.9734
Total Arrivals: 1 Total Departures: 3
Latest Arrival: MJ382 (TJSJ-TIST)Jason. Li Latest Departure: DL307 (TIST-KATL)Jason. Li
Scenery:
METAR : TIST 092153Z 07011KT 10SM FEW120 27/22 A3000

西瑞爾金恩機場 STT

You are accessing this site from IP address 35.170.81.210. Virtual Airline. CMS by phpVMS.Website designed by Zumeweb and edited by Theo Bearman.
There is 0 User(s) Online: | and 6 Guest(s) Online.
All information on this site is for fight simulation purposes only. This site is for flight logging for pilots of Virtual Airline&模擬飛行論壇 FlySim only.